createdAt,value
2022-10-31T00:00:43.695Z,90.73
2022-10-31T00:03:14.050Z,88.83
2022-10-31T00:05:49.381Z,91.34
2022-10-31T00:08:20.362Z,90.71
2022-10-31T00:10:50.539Z,89.28
2022-10-31T00:13:23.764Z,90.59
2022-10-31T00:15:54.035Z,88.85
2022-10-31T00:18:24.369Z,90.09
2022-10-31T00:21:05.023Z,90.66
2022-10-31T00:23:35.402Z,91.14
2022-10-31T00:26:05.545Z,90.86
2022-10-31T00:28:35.938Z,91.70
2022-10-31T00:31:09.986Z,92.31
2022-10-31T00:33:42.246Z,92.97
2022-10-31T00:36:18.993Z,92.70
2022-10-31T00:38:50.483Z,93.05
2022-10-31T00:41:21.004Z,94.76
2022-10-31T00:43:51.717Z,94.52
2022-10-31T00:46:22.365Z,94.11
2022-10-31T00:48:53.906Z,92.55
2022-10-31T00:51:24.051Z,93.78
2022-10-31T00:53:54.836Z,91.80
2022-10-31T00:56:25.020Z,93.03
2022-10-31T00:58:55.515Z,94.02
2022-10-31T01:01:25.212Z,92.05
2022-10-31T01:03:55.445Z,92.35
2022-10-31T01:06:25.654Z,94.12
2022-10-31T01:08:56.828Z,90.68
2022-10-31T01:11:26.646Z,90.66
2022-10-31T01:13:57.127Z,93.11
2022-10-31T01:16:29.230Z,93.19
2022-10-31T01:19:00.729Z,93.47
2022-10-31T01:21:32.128Z,93.55
2022-10-31T01:24:04.516Z,94.36
2022-10-31T01:26:35.734Z,94.46
2022-10-31T01:29:11.418Z,94.04
2022-10-31T01:31:42.333Z,93.53
2022-10-31T01:34:17.676Z,95.07
2022-10-31T01:36:53.218Z,93.95
2022-10-31T01:39:25.316Z,88.14
2022-10-31T01:41:56.570Z,91.20
2022-10-31T01:44:27.614Z,92.44
2022-10-31T01:47:18.151Z,92.88
2022-10-31T01:50:02.232Z,93.62
2022-10-31T01:52:41.424Z,92.94
2022-10-31T01:55:20.035Z,93.37
2022-10-31T01:57:54.398Z,92.53
2022-10-31T02:00:25.427Z,92.71
2022-10-31T02:02:58.373Z,93.07
2022-10-31T02:05:32.427Z,93.38
2022-10-31T02:08:17.075Z,92.56
2022-10-31T02:10:47.536Z,93.48
2022-10-31T02:13:18.902Z,93.06
2022-10-31T02:15:56.278Z,93.29
2022-10-31T02:18:29.876Z,91.24
2022-10-31T02:21:08.859Z,90.45
2022-10-31T02:24:15.703Z,90.79
2022-10-31T02:27:16.944Z,89.72
2022-10-31T02:30:10.491Z,89.91
2022-10-31T02:33:03.291Z,89.11
2022-10-31T02:35:42.929Z,87.11
2022-10-31T02:38:27.260Z,87.53
2022-10-31T02:41:36.441Z,88.65
2022-10-31T02:44:39.605Z,87.94
2022-10-31T02:47:16.590Z,90.18
2022-10-31T02:49:56.197Z,91.81
2022-10-31T02:52:32.595Z,90.26
2022-10-31T02:55:25.341Z,89.74
2022-10-31T02:58:11.388Z,91.09
2022-10-31T03:00:51.243Z,90.89
2022-10-31T03:03:25.530Z,90.47
2022-10-31T03:05:59.661Z,90.78
2022-10-31T03:08:29.807Z,90.31
2022-10-31T03:11:10.856Z,91.08
2022-10-31T03:14:00.315Z,91.40
2022-10-31T03:16:49.005Z,91.98
2022-10-31T03:19:25.360Z,92.89
2022-10-31T03:22:07.096Z,92.77
2022-10-31T03:24:43.187Z,92.49
2022-10-31T03:27:17.740Z,92.79
2022-10-31T03:29:50.045Z,93.39
2022-10-31T03:32:35.353Z,93.45
2022-10-31T03:35:09.791Z,93.21
2022-10-31T03:37:43.208Z,93.45
2022-10-31T03:40:17.995Z,93.63
2022-10-31T03:42:56.007Z,92.60
2022-10-31T03:45:33.544Z,92.55
2022-10-31T03:48:04.442Z,92.59
2022-10-31T03:50:55.300Z,92.47
2022-10-31T03:53:43.872Z,93.12
2022-10-31T03:56:37.190Z,93.91
2022-10-31T03:59:25.436Z,95.59
2022-10-31T04:02:03.100Z,98.10
2022-10-31T04:04:35.774Z,96.94
2022-10-31T04:07:10.570Z,97.28
2022-10-31T04:09:47.891Z,98.94
2022-10-31T04:12:19.795Z,98.10
2022-10-31T04:15:06.301Z,98.73
2022-10-31T04:17:42.865Z,99.22
2022-10-31T04:20:13.742Z,98.83
2022-10-31T04:22:43.866Z,99.11
2022-10-31T04:25:13.852Z,98.50
2022-10-31T04:27:43.905Z,98.62
2022-10-31T04:30:13.997Z,97.87
2022-10-31T04:32:44.217Z,98.78
2022-10-31T04:35:14.811Z,98.92
2022-10-31T04:37:44.521Z,98.86
2022-10-31T04:40:14.684Z,98.91
2022-10-31T04:42:44.745Z,99.01
2022-10-31T04:45:16.938Z,99.00
2022-10-31T04:47:52.948Z,99.50
2022-10-31T04:50:23.150Z,98.18
2022-10-31T04:52:53.907Z,98.86
2022-10-31T04:55:28.724Z,99.29
2022-10-31T04:58:21.576Z,99.65
2022-10-31T05:00:57.977Z,99.21
2022-10-31T05:03:29.374Z,98.02
2022-10-31T05:05:59.270Z,98.03
2022-10-31T05:08:29.612Z,98.55
2022-10-31T05:11:04.925Z,98.53
2022-10-31T05:13:36.183Z,98.13
2022-10-31T05:16:15.230Z,99.53
2022-10-31T05:18:48.232Z,98.94
2022-10-31T05:21:56.653Z,98.11
2022-10-31T05:24:26.833Z,97.62
2022-10-31T05:26:56.837Z,98.57
2022-10-31T05:29:26.484Z,97.73
2022-10-31T05:31:56.391Z,98.47
2022-10-31T05:35:01.436Z,98.68
2022-10-31T05:37:51.101Z,99.38
2022-10-31T05:40:22.766Z,98.66
2022-10-31T05:42:58.462Z,98.82
2022-10-31T05:45:29.066Z,98.88
2022-10-31T05:48:04.860Z,99.23
2022-10-31T05:50:54.349Z,98.54
2022-10-31T05:53:26.216Z,98.63
2022-10-31T05:55:56.439Z,98.81
2022-10-31T05:58:26.163Z,98.47
2022-10-31T06:01:09.812Z,98.39
2022-10-31T06:03:41.165Z,97.85
2022-10-31T06:06:13.015Z,98.35
2022-10-31T06:08:44.826Z,97.91
2022-10-31T06:11:22.140Z,99.03
2022-10-31T06:14:08.134Z,99.10
2022-10-31T06:16:57.816Z,99.28
2022-10-31T06:19:46.149Z,99.38
2022-10-31T06:22:21.989Z,99.60
2022-10-31T06:24:52.547Z,98.82
2022-10-31T06:27:31.478Z,99.41
2022-10-31T06:30:07.310Z,98.94
2022-10-31T06:32:39.612Z,99.70
2022-10-31T06:35:09.449Z,97.89
2022-10-31T06:37:40.546Z,97.99
2022-10-31T06:40:30.928Z,98.37
2022-10-31T06:43:18.723Z,99.00
2022-10-31T06:45:49.034Z,98.70
2022-10-31T06:48:28.501Z,98.99
2022-10-31T06:51:31.085Z,98.90
2022-10-31T06:54:02.913Z,99.64
2022-10-31T06:56:33.938Z,99.36
2022-10-31T06:59:04.995Z,98.70
2022-10-31T07:01:57.451Z,98.52
2022-10-31T07:04:27.351Z,98.85
2022-10-31T07:06:57.331Z,99.26
2022-10-31T07:09:27.686Z,98.62
2022-10-31T07:12:00.156Z,98.60
2022-10-31T07:14:32.401Z,98.73
2022-10-31T07:17:03.773Z,98.33
2022-10-31T07:19:41.529Z,98.94
2022-10-31T07:22:12.932Z,99.24
2022-10-31T07:24:46.284Z,99.15
2022-10-31T07:27:43.977Z,99.00
2022-10-31T07:30:16.795Z,98.44
2022-10-31T07:32:49.256Z,97.39
2022-10-31T07:35:26.576Z,96.71
2022-10-31T07:38:00.779Z,97.26
2022-10-31T07:40:31.411Z,98.13
2022-10-31T07:43:01.136Z,97.04
2022-10-31T07:45:59.924Z,97.60
2022-10-31T07:48:48.184Z,97.83
2022-10-31T07:51:57.497Z,97.81
2022-10-31T07:54:47.721Z,97.66
2022-10-31T07:57:28.438Z,96.90
2022-10-31T08:00:00.853Z,97.41
2022-10-31T08:02:32.790Z,96.78
2022-10-31T08:05:28.822Z,97.26
2022-10-31T08:08:22.017Z,96.83
2022-10-31T08:10:52.220Z,96.90
2022-10-31T08:13:24.020Z,96.99
2022-10-31T08:15:55.977Z,96.59
2022-10-31T08:18:28.568Z,96.52
2022-10-31T08:20:58.922Z,96.79
2022-10-31T08:23:29.123Z,96.37
2022-10-31T08:26:00.461Z,96.93
2022-10-31T08:28:30.852Z,97.36
2022-10-31T08:31:01.398Z,96.73
2022-10-31T08:34:00.419Z,96.92
2022-10-31T08:37:05.595Z,96.32
2022-10-31T08:39:43.865Z,96.43
2022-10-31T08:42:13.692Z,96.06
2022-10-31T08:44:43.683Z,96.09
2022-10-31T08:47:13.490Z,95.89
2022-10-31T08:49:43.562Z,96.82
2022-10-31T08:52:14.588Z,96.02
2022-10-31T08:54:46.642Z,95.83
2022-10-31T08:57:42.654Z,96.02
2022-10-31T09:00:15.480Z,96.25
2022-10-31T09:03:06.019Z,95.68
2022-10-31T09:05:36.638Z,95.34
2022-10-31T09:08:14.757Z,95.93
2022-10-31T09:10:47.559Z,94.98
2022-10-31T09:13:27.359Z,95.75
2022-10-31T09:16:27.486Z,95.65
2022-10-31T09:18:57.990Z,95.54
2022-10-31T09:21:28.722Z,95.84
2022-10-31T09:24:01.830Z,95.53
2022-10-31T09:26:32.774Z,96.29
2022-10-31T09:29:27.532Z,96.38
2022-10-31T09:32:01.864Z,96.54
2022-10-31T09:34:33.395Z,97.74
2022-10-31T09:37:09.162Z,97.35
2022-10-31T09:39:38.831Z,97.88
2022-10-31T09:43:02.189Z,97.36
2022-10-31T09:45:37.978Z,97.49
2022-10-31T09:48:43.388Z,97.60
2022-10-31T09:51:53.069Z,96.44
2022-10-31T09:54:39.955Z,97.54
2022-10-31T09:57:17.337Z,96.69
2022-10-31T09:59:52.288Z,98.08
2022-10-31T10:03:10.925Z,96.45
2022-10-31T10:06:13.060Z,97.10
2022-10-31T10:09:04.208Z,96.66
2022-10-31T10:12:05.356Z,96.93
2022-10-31T10:15:10.585Z,97.63
2022-10-31T10:18:02.872Z,97.72
2022-10-31T10:20:43.383Z,97.34
2022-10-31T10:23:53.124Z,96.92
2022-10-31T10:26:26.745Z,97.34
2022-10-31T10:29:27.706Z,97.78
2022-10-31T10:32:00.790Z,98.30
2022-10-31T10:34:37.454Z,97.16
2022-10-31T10:37:25.045Z,98.13
2022-10-31T10:40:04.589Z,97.36
2022-10-31T10:42:54.060Z,97.30
2022-10-31T10:45:42.316Z,97.14
2022-10-31T10:48:32.597Z,98.13
2022-10-31T10:51:04.087Z,97.63
2022-10-31T10:54:04.211Z,98.09
2022-10-31T10:57:02.685Z,97.97
2022-10-31T10:59:34.081Z,99.16
2022-10-31T11:02:06.071Z,98.42
2022-10-31T11:04:38.348Z,99.13
2022-10-31T11:07:13.608Z,99.27
2022-10-31T11:09:43.965Z,99.03
2022-10-31T11:12:20.206Z,99.46
2022-10-31T11:14:57.968Z,98.68
2022-10-31T11:17:41.854Z,99.88
2022-10-31T11:20:18.015Z,98.89
2022-10-31T11:22:50.956Z,98.82
2022-10-31T11:25:28.738Z,98.36
2022-10-31T11:28:03.099Z,97.89
2022-10-31T11:30:38.435Z,99.33
2022-10-31T11:33:15.307Z,99.30
2022-10-31T11:35:45.809Z,99.52
2022-10-31T11:38:22.446Z,99.32
2022-10-31T11:41:01.893Z,98.83
2022-10-31T11:43:32.614Z,99.49
2022-10-31T11:46:10.585Z,99.01
2022-10-31T11:48:41.423Z,98.93
2022-10-31T11:51:11.901Z,98.96
2022-10-31T11:53:57.025Z,99.22
2022-10-31T11:56:30.443Z,98.72
2022-10-31T11:59:04.436Z,98.89
2022-10-31T12:01:37.024Z,99.99
2022-10-31T12:04:15.064Z,99.12
2022-10-31T12:06:50.133Z,98.37
2022-10-31T12:09:36.440Z,97.91
2022-10-31T12:12:27.842Z,97.87
2022-10-31T12:15:03.857Z,98.59
2022-10-31T12:17:50.901Z,98.97
2022-10-31T12:20:50.303Z,98.90
2022-10-31T12:23:41.829Z,99.37
2022-10-31T12:26:36.304Z,99.99
2022-10-31T12:29:18.374Z,99.43
2022-10-31T12:32:44.829Z,98.74
2022-10-31T12:35:36.735Z,98.24
2022-10-31T12:38:26.919Z,98.88
2022-10-31T12:41:04.868Z,99.22
2022-10-31T12:43:48.914Z,99.20
2022-10-31T12:46:58.240Z,98.19
2022-10-31T12:50:14.731Z,98.47
2022-10-31T12:53:00.167Z,97.35
2022-10-31T12:55:45.990Z,98.57
2022-10-31T12:58:31.962Z,99.30
2022-10-31T13:01:17.115Z,98.88
2022-10-31T13:03:50.198Z,99.56
2022-10-31T13:06:32.831Z,99.71
2022-10-31T13:09:11.287Z,98.60
2022-10-31T13:11:51.876Z,99.99
2022-10-31T13:14:57.260Z,98.55
2022-10-31T13:17:39.716Z,98.23
2022-10-31T13:20:21.937Z,99.55
2022-10-31T13:22:58.857Z,99.29
2022-10-31T13:25:35.986Z,99.99
2022-10-31T13:28:23.533Z,99.93
2022-10-31T13:30:55.790Z,99.99
2022-10-31T13:33:37.761Z,99.99
2022-10-31T13:36:35.176Z,97.52
2022-10-31T13:39:14.289Z,99.08
2022-10-31T13:41:50.218Z,99.88
2022-10-31T13:44:23.380Z,99.02
2022-10-31T13:46:54.986Z,99.25
2022-10-31T13:49:34.220Z,99.99
2022-10-31T13:52:19.588Z,99.86
2022-10-31T13:54:57.919Z,99.92
2022-10-31T13:57:47.220Z,99.99
2022-10-31T14:00:23.436Z,99.99
2022-10-31T14:02:59.280Z,99.99
2022-10-31T14:05:32.406Z,99.99
2022-10-31T14:08:06.499Z,99.99
2022-10-31T14:10:49.068Z,99.99
2022-10-31T14:13:43.399Z,99.99
2022-10-31T14:16:29.495Z,99.99
2022-10-31T14:19:17.415Z,99.99
2022-10-31T14:21:49.882Z,99.99
2022-10-31T14:24:25.973Z,99.99
2022-10-31T14:27:00.634Z,99.99
2022-10-31T14:29:36.486Z,99.99
2022-10-31T14:32:26.907Z,99.99
2022-10-31T14:34:59.287Z,99.99
2022-10-31T14:38:00.242Z,99.99
2022-10-31T14:40:39.735Z,99.99
2022-10-31T14:44:03.437Z,99.99
2022-10-31T14:46:39.416Z,99.99
2022-10-31T14:49:35.491Z,99.99
2022-10-31T14:52:10.302Z,99.99
2022-10-31T14:54:53.565Z,99.86
2022-10-31T14:57:37.206Z,99.99
2022-10-31T15:00:17.918Z,99.99
2022-10-31T15:03:09.288Z,99.99
2022-10-31T15:05:49.146Z,99.99
2022-10-31T15:08:41.934Z,99.99
2022-10-31T15:11:30.021Z,99.99
2022-10-31T15:14:04.924Z,99.99
2022-10-31T15:16:39.943Z,99.99
2022-10-31T15:19:14.589Z,98.90
2022-10-31T15:21:48.679Z,99.51
2022-10-31T15:24:20.666Z,99.72
2022-10-31T15:26:59.665Z,99.99
2022-10-31T15:29:32.589Z,99.78
2022-10-31T15:32:15.921Z,99.92
2022-10-31T15:34:46.860Z,99.99
2022-10-31T15:37:19.836Z,99.99
2022-10-31T15:39:52.352Z,99.92
2022-10-31T15:42:34.855Z,99.99
2022-10-31T15:45:11.746Z,99.99
2022-10-31T15:47:49.773Z,99.99
2022-10-31T15:50:47.234Z,99.99
2022-10-31T15:53:39.780Z,99.99
2022-10-31T15:56:12.923Z,99.99
2022-10-31T15:58:48.358Z,99.99
2022-10-31T16:01:28.997Z,99.99
2022-10-31T16:04:14.458Z,99.99
2022-10-31T16:06:44.623Z,99.99
2022-10-31T16:09:25.609Z,99.99
2022-10-31T16:11:57.404Z,99.99
2022-10-31T16:14:47.647Z,99.99
2022-10-31T16:17:18.474Z,99.99
2022-10-31T16:19:57.732Z,99.99
2022-10-31T16:22:31.596Z,99.99
2022-10-31T16:25:14.058Z,99.99
2022-10-31T16:27:54.212Z,99.99
2022-10-31T16:30:47.764Z,99.99
2022-10-31T16:33:39.362Z,99.99
2022-10-31T16:36:36.281Z,99.99
2022-10-31T16:39:07.154Z,99.99
2022-10-31T16:42:03.450Z,99.47
2022-10-31T16:44:33.865Z,99.55
2022-10-31T16:47:26.014Z,98.24
2022-10-31T16:50:02.020Z,98.29
2022-10-31T16:52:38.084Z,98.52
2022-10-31T16:55:20.916Z,99.60
2022-10-31T16:57:54.314Z,99.99
2022-10-31T17:00:26.551Z,99.99
2022-10-31T17:02:59.216Z,99.99
2022-10-31T17:05:31.490Z,99.99
2022-10-31T17:08:02.577Z,99.99
2022-10-31T17:10:33.494Z,99.97
2022-10-31T17:13:06.025Z,98.57
2022-10-31T17:15:41.707Z,99.99
2022-10-31T17:18:15.479Z,98.99
2022-10-31T17:20:46.639Z,98.72
2022-10-31T17:23:18.554Z,99.60
2022-10-31T17:25:48.758Z,99.18
2022-10-31T17:28:18.798Z,99.65
2022-10-31T17:30:49.229Z,99.26
2022-10-31T17:33:19.679Z,99.40
2022-10-31T17:35:49.735Z,99.24
2022-10-31T17:38:19.722Z,99.97
2022-10-31T17:40:50.022Z,99.99
2022-10-31T17:43:20.235Z,99.99
2022-10-31T17:45:50.380Z,99.99
2022-10-31T17:48:20.643Z,99.99
2022-10-31T17:50:50.761Z,99.99
2022-10-31T17:53:20.752Z,99.99
2022-10-31T17:55:50.612Z,99.82
2022-10-31T17:58:20.753Z,99.99
2022-10-31T18:00:51.538Z,99.31
2022-10-31T18:03:21.809Z,99.99
2022-10-31T18:06:01.662Z,99.99
2022-10-31T18:08:37.002Z,99.59
2022-10-31T18:11:16.050Z,99.99
2022-10-31T18:13:46.365Z,99.54
2022-10-31T18:16:20.438Z,99.99
2022-10-31T18:19:03.380Z,99.21
2022-10-31T18:21:33.649Z,99.70
2022-10-31T18:24:04.714Z,99.41
2022-10-31T18:26:35.043Z,99.85
2022-10-31T18:29:05.501Z,99.38
2022-10-31T18:31:35.149Z,99.99
2022-10-31T18:34:05.371Z,99.22
2022-10-31T18:36:35.579Z,98.40
2022-10-31T18:39:05.946Z,99.62
2022-10-31T18:41:36.855Z,97.92
2022-10-31T18:44:09.029Z,98.07
2022-10-31T18:46:39.676Z,98.22
2022-10-31T18:49:10.973Z,99.16
2022-10-31T18:51:41.075Z,98.96
2022-10-31T18:54:11.405Z,98.94
2022-10-31T18:56:41.552Z,97.89
2022-10-31T18:59:12.838Z,99.71
2022-10-31T19:01:43.170Z,98.95
2022-10-31T19:04:13.280Z,98.76
2022-10-31T19:06:43.364Z,98.91
2022-10-31T19:09:13.796Z,98.91
2022-10-31T19:11:44.165Z,99.79
2022-10-31T19:14:18.176Z,97.37
2022-10-31T19:16:50.905Z,98.00
2022-10-31T19:19:22.800Z,99.06
2022-10-31T19:21:52.972Z,99.33
2022-10-31T19:24:23.593Z,98.47
2022-10-31T19:26:53.831Z,97.59
2022-10-31T19:29:24.181Z,97.61
2022-10-31T19:31:54.347Z,98.37
2022-10-31T19:34:24.792Z,98.41
2022-10-31T19:36:55.150Z,99.01
2022-10-31T19:39:25.468Z,98.21
2022-10-31T19:41:55.608Z,99.99
2022-10-31T19:44:25.993Z,99.44
2022-10-31T19:46:56.173Z,98.61
2022-10-31T19:49:26.772Z,98.91
2022-10-31T19:51:56.958Z,99.74
2022-10-31T19:54:27.221Z,98.33
2022-10-31T19:56:57.391Z,98.91
2022-10-31T19:59:27.734Z,97.86
2022-10-31T20:01:58.147Z,99.23
2022-10-31T20:04:27.892Z,99.45
2022-10-31T20:06:58.042Z,98.85
2022-10-31T20:09:28.327Z,99.08
2022-10-31T20:11:58.474Z,99.10
2022-10-31T20:14:29.445Z,99.47
2022-10-31T20:17:02.273Z,98.13
2022-10-31T20:19:38.345Z,98.59
2022-10-31T20:22:18.511Z,99.99
2022-10-31T20:24:50.928Z,98.84
2022-10-31T20:27:21.414Z,99.58
2022-10-31T20:29:55.233Z,98.92
2022-10-31T20:32:26.194Z,99.70
2022-10-31T20:34:56.642Z,99.42
2022-10-31T20:37:26.861Z,99.99
2022-10-31T20:39:57.110Z,99.99
2022-10-31T20:42:27.182Z,99.99
2022-10-31T20:44:57.367Z,99.99
2022-10-31T20:47:27.490Z,99.47
2022-10-31T20:49:57.840Z,99.99
2022-10-31T20:52:28.076Z,99.99
2022-10-31T20:54:58.323Z,99.99
2022-10-31T20:57:28.563Z,99.99
2022-10-31T20:59:58.814Z,99.99
2022-10-31T21:02:28.855Z,99.99
2022-10-31T21:04:59.704Z,99.99
2022-10-31T21:07:32.802Z,99.99
2022-10-31T21:10:03.316Z,99.99
2022-10-31T21:12:34.026Z,99.99
2022-10-31T21:15:04.385Z,98.66
2022-10-31T21:17:34.635Z,98.48
2022-10-31T21:20:06.921Z,98.81
2022-10-31T21:22:37.420Z,99.67
2022-10-31T21:25:08.284Z,99.31
2022-10-31T21:27:38.450Z,99.24
2022-10-31T21:30:09.110Z,99.28
2022-10-31T21:32:39.340Z,99.12
2022-10-31T21:35:09.915Z,99.43
2022-10-31T21:37:39.581Z,99.99
2022-10-31T21:40:10.170Z,99.78
2022-10-31T21:42:40.453Z,99.99
2022-10-31T21:45:10.865Z,99.76
2022-10-31T21:47:41.028Z,99.99
2022-10-31T21:50:11.504Z,99.99
2022-10-31T21:52:41.610Z,99.99
2022-10-31T21:55:12.168Z,99.99
2022-10-31T21:57:42.388Z,99.99
2022-10-31T22:00:13.189Z,99.99
2022-10-31T22:02:43.401Z,99.99
2022-10-31T22:05:13.532Z,99.99
2022-10-31T22:07:43.678Z,99.99
2022-10-31T22:10:13.672Z,99.99
2022-10-31T22:12:43.755Z,99.99
2022-10-31T22:15:13.957Z,99.96
2022-10-31T22:17:44.093Z,99.99
2022-10-31T22:20:14.389Z,99.31
2022-10-31T22:22:44.470Z,98.92
2022-10-31T22:25:15.155Z,99.38
2022-10-31T22:27:45.554Z,99.25
2022-10-31T22:30:15.797Z,99.99
2022-10-31T22:32:45.659Z,99.57
2022-10-31T22:35:15.522Z,98.45
2022-10-31T22:37:45.695Z,99.72
2022-10-31T22:40:15.819Z,99.05
2022-10-31T22:42:46.003Z,98.54
2022-10-31T22:45:16.250Z,98.28
2022-10-31T22:47:46.397Z,99.23
2022-10-31T22:50:16.779Z,99.54
2022-10-31T22:52:47.012Z,98.79
2022-10-31T22:55:18.543Z,98.49
2022-10-31T22:57:48.718Z,98.97
2022-10-31T23:00:22.203Z,99.28
2022-10-31T23:02:52.547Z,98.86
2022-10-31T23:05:22.941Z,99.62
2022-10-31T23:07:53.164Z,99.98
2022-10-31T23:10:23.875Z,99.99
2022-10-31T23:13:12.787Z,98.71
2022-10-31T23:15:43.029Z,99.99
2022-10-31T23:18:19.046Z,99.99
2022-10-31T23:21:04.892Z,99.99
2022-10-31T23:23:37.350Z,99.99
2022-10-31T23:26:25.955Z,99.99
2022-10-31T23:28:56.174Z,99.99
2022-10-31T23:31:26.526Z,99.99
2022-10-31T23:33:56.692Z,99.99
2022-10-31T23:36:26.855Z,99.99
2022-10-31T23:38:56.723Z,99.99
2022-10-31T23:41:26.845Z,99.99
2022-10-31T23:43:57.092Z,99.99
2022-10-31T23:46:27.236Z,99.99
2022-10-31T23:48:57.361Z,99.99
2022-10-31T23:51:27.854Z,99.99
2022-10-31T23:53:57.460Z,99.99
2022-10-31T23:56:27.553Z,99.99
2022-10-31T23:58:57.708Z,99.99
